Qaanaaq

KL  EN  DA
ASIAQ
Weather Now GREENLAND SURVEY
Updated [WGT/WGST] Temperature [°C] Wind [m/s] Air pressure [hPa] Relative humidity [%] Precipitation [mm]
Present Wind chill Speed Max
25.02 09:00n/an/a1,1 ⇑1,5n/an/an/a
25.02 08:00-27,90,00,4 ⇖1,0101954n/a
25.02 07:00-27,00,00,5 ⇑1,0101851n/a
25.02 06:00-28,20,00,6 ⇑1,0101855n/a
25.02 05:00-29,20,00,2 ⇑0,5101758n/a
25.02 04:00-28,10,00,5 ⇑1,0101755n/a
25.02 03:00n/an/a0,9 ⇑1,5n/an/an/a
25.02 02:00-28,40,00,9 ⇑1,5101657n/a
25.02 01:00-29,40,01,0 ⇑1,5101554n/a
25.02 00:00-27,20,00,8 ⇑1,5101553n/a
24.02 23:00-27,20,00,4 ⇑1,0101451n/a
24.02 22:00-27,50,00,5 ⇑1,5101448n/a
24.02 21:00-28,00,00,3 ⇖1,0101353n/a
24.02 20:00-28,30,00,5 ⇑1,5101353n/a
24.02 19:00-29,00,00,6 ⇑1,0101255n/a
24.02 18:00-28,10,00,8 ⇖1,5101153n/a
24.02 17:00-29,00,00,7 ⇓1,5101056n/a
24.02 16:00-28,6-34,41,5 ⇓2,6100954n/a
24.02 15:00-28,1-35,92,3 ⇘3,6100951n/a
24.02 14:00-28,50,01,2 ⇒2,6100848n/a
24.02 13:00-27,2-32,81,5 ⇓2,1100752n/a
24.02 12:00-26,60,01,2 ⇘1,5100753n/a
24.02 11:00-27,4-33,31,6 ⇘3,1100653n/a
24.02 10:00-26,8-33,92,1 ⇖3,6100550n/a
24.02 09:00-29,10,00,4 ⇒1,0100559n/a
Position: (77.48527778,-69.3744444444)

[Back]